sensor_id;sensor_type;location;lat;lon;timestamp;P1;durP1;ratioP1;P2;durP2;ratioP2
46084;SDS011;31823;47.032;8.310;2023-04-29T00:01:07;20.02;;;5.13;;
46084;SDS011;31823;47.032;8.310;2023-04-29T00:03:33;4.82;;;2.90;;
46084;SDS011;31823;47.032;8.310;2023-04-29T00:05:59;4.57;;;2.65;;
46084;SDS011;31823;47.032;8.310;2023-04-29T00:08:26;4.05;;;2.42;;
46084;SDS011;31823;47.032;8.310;2023-04-29T00:10:51;3.55;;;2.10;;
46084;SDS011;31823;47.032;8.310;2023-04-29T00:13:19;4.85;;;2.50;;
46084;SDS011;31823;47.032;8.310;2023-04-29T00:15:45;2.33;;;2.10;;
46084;SDS011;31823;47.032;8.310;2023-04-29T00:18:11;3.55;;;2.15;;
46084;SDS011;31823;47.032;8.310;2023-04-29T00:20:38;5.45;;;2.33;;
46084;SDS011;31823;47.032;8.310;2023-04-29T00:23:03;5.68;;;2.45;;
46084;SDS011;31823;47.032;8.310;2023-04-29T00:25:30;6.72;;;3.03;;
46084;SDS011;31823;47.032;8.310;2023-04-29T00:27:55;4.25;;;2.60;;
46084;SDS011;31823;47.032;8.310;2023-04-29T00:30:25;2.72;;;2.35;;
46084;SDS011;31823;47.032;8.310;2023-04-29T00:32:54;8.93;;;2.80;;
46084;SDS011;31823;47.032;8.310;2023-04-29T00:35:21;3.60;;;2.40;;
46084;SDS011;31823;47.032;8.310;2023-04-29T00:37:47;11.95;;;3.03;;
46084;SDS011;31823;47.032;8.310;2023-04-29T00:40:14;4.30;;;2.85;;
46084;SDS011;31823;47.032;8.310;2023-04-29T00:42:40;6.88;;;3.60;;
46084;SDS011;31823;47.032;8.310;2023-04-29T00:45:06;5.07;;;2.72;;
46084;SDS011;31823;47.032;8.310;2023-04-29T00:47:32;6.90;;;3.47;;
46084;SDS011;31823;47.032;8.310;2023-04-29T00:49:58;10.85;;;3.72;;
46084;SDS011;31823;47.032;8.310;2023-04-29T00:52:24;9.15;;;3.85;;
46084;SDS011;31823;47.032;8.310;2023-04-29T00:54:53;9.68;;;3.70;;
46084;SDS011;31823;47.032;8.310;2023-04-29T00:57:19;10.25;;;3.33;;
46084;SDS011;31823;47.032;8.310;2023-04-29T00:59:46;4.80;;;2.75;;
46084;SDS011;31823;47.032;8.310;2023-04-29T01:02:12;6.05;;;3.33;;
46084;SDS011;31823;47.032;8.310;2023-04-29T01:04:38;7.78;;;2.95;;
46084;SDS011;31823;47.032;8.310;2023-04-29T01:07:13;11.50;;;3.13;;
46084;SDS011;31823;47.032;8.310;2023-04-29T01:12:45;7.55;;;3.33;;
46084;SDS011;31823;47.032;8.310;2023-04-29T01:15:22;5.95;;;3.55;;
46084;SDS011;31823;47.032;8.310;2023-04-29T01:17:57;9.85;;;3.75;;
46084;SDS011;31823;47.032;8.310;2023-04-29T01:20:28;10.52;;;4.32;;
46084;SDS011;31823;47.032;8.310;2023-04-29T01:22:55;7.38;;;3.45;;
46084;SDS011;31823;47.032;8.310;2023-04-29T01:25:22;4.85;;;4.32;;
46084;SDS011;31823;47.032;8.310;2023-04-29T01:28:01;10.07;;;3.90;;
46084;SDS011;31823;47.032;8.310;2023-04-29T01:45:00;5.05;;;2.40;;
46084;SDS011;31823;47.032;8.310;2023-04-29T01:47:30;8.10;;;3.40;;
46084;SDS011;31823;47.032;8.310;2023-04-29T01:49:57;8.30;;;5.07;;
46084;SDS011;31823;47.032;8.310;2023-04-29T01:52:23;15.38;;;13.82;;
46084;SDS011;31823;47.032;8.310;2023-04-29T01:54:49;45.75;;;41.67;;
46084;SDS011;31823;47.032;8.310;2023-04-29T01:57:14;25.77;;;23.30;;
46084;SDS011;31823;47.032;8.310;2023-04-29T01:59:41;10.52;;;7.72;;
46084;SDS011;31823;47.032;8.310;2023-04-29T02:02:06;9.93;;;5.95;;
46084;SDS011;31823;47.032;8.310;2023-04-29T02:04:32;9.18;;;2.78;;
46084;SDS011;31823;47.032;8.310;2023-04-29T02:06:58;3.63;;;3.30;;
46084;SDS011;31823;47.032;8.310;2023-04-29T02:09:24;9.93;;;3.50;;
46084;SDS011;31823;47.032;8.310;2023-04-29T02:11:49;6.85;;;3.22;;
46084;SDS011;31823;47.032;8.310;2023-04-29T02:14:15;8.95;;;6.22;;
46084;SDS011;31823;47.032;8.310;2023-04-29T02:16:44;11.45;;;3.10;;
46084;SDS011;31823;47.032;8.310;2023-04-29T02:19:10;8.73;;;7.78;;
46084;SDS011;31823;47.032;8.310;2023-04-29T02:21:36;10.00;;;4.40;;
46084;SDS011;31823;47.032;8.310;2023-04-29T02:24:03;9.18;;;3.85;;
46084;SDS011;31823;47.032;8.310;2023-04-29T02:26:29;3.15;;;2.10;;
46084;SDS011;31823;47.032;8.310;2023-04-29T02:28:55;4.55;;;3.55;;
46084;SDS011;31823;47.032;8.310;2023-04-29T02:31:21;5.55;;;2.08;;
46084;SDS011;31823;47.032;8.310;2023-04-29T02:33:47;4.53;;;1.50;;
46084;SDS011;31823;47.032;8.310;2023-04-29T02:36:12;6.15;;;1.60;;
46084;SDS011;31823;47.032;8.310;2023-04-29T02:38:38;3.28;;;1.55;;
46084;SDS011;31823;47.032;8.310;2023-04-29T02:41:03;5.60;;;1.65;;
46084;SDS011;31823;47.032;8.310;2023-04-29T02:43:29;6.85;;;1.65;;
46084;SDS011;31823;47.032;8.310;2023-04-29T02:45:55;1.80;;;1.52;;
46084;SDS011;31823;47.032;8.310;2023-04-29T02:48:21;1.80;;;1.42;;
46084;SDS011;31823;47.032;8.310;2023-04-29T02:50:47;7.18;;;1.20;;
46084;SDS011;31823;47.032;8.310;2023-04-29T02:53:13;2.38;;;1.35;;
46084;SDS011;31823;47.032;8.310;2023-04-29T02:55:38;2.55;;;1.50;;
46084;SDS011;31823;47.032;8.310;2023-04-29T02:58:04;3.33;;;1.55;;
46084;SDS011;31823;47.032;8.310;2023-04-29T03:00:30;3.47;;;1.48;;
46084;SDS011;31823;47.032;8.310;2023-04-29T03:02:55;4.07;;;1.42;;
46084;SDS011;31823;47.032;8.310;2023-04-29T03:05:21;1.83;;;1.42;;
46084;SDS011;31823;47.032;8.310;2023-04-29T03:07:47;5.07;;;1.73;;
46084;SDS011;31823;47.032;8.310;2023-04-29T03:10:12;2.83;;;1.45;;
46084;SDS011;31823;47.032;8.310;2023-04-29T03:12:38;3.75;;;1.35;;
46084;SDS011;31823;47.032;8.310;2023-04-29T03:15:05;4.30;;;1.40;;
46084;SDS011;31823;47.032;8.310;2023-04-29T03:17:31;3.47;;;1.38;;
46084;SDS011;31823;47.032;8.310;2023-04-29T03:19:57;2.17;;;1.60;;
46084;SDS011;31823;47.032;8.310;2023-04-29T03:22:23;2.28;;;1.33;;
46084;SDS011;31823;47.032;8.310;2023-04-29T03:24:48;4.25;;;1.55;;
46084;SDS011;31823;47.032;8.310;2023-04-29T03:27:14;4.75;;;1.42;;
46084;SDS011;31823;47.032;8.310;2023-04-29T03:29:40;7.57;;;1.65;;
46084;SDS011;31823;47.032;8.310;2023-04-29T03:32:05;10.60;;;1.98;;
46084;SDS011;31823;47.032;8.310;2023-04-29T03:34:31;9.07;;;1.70;;
46084;SDS011;31823;47.032;8.310;2023-04-29T03:36:57;7.13;;;1.40;;
46084;SDS011;31823;47.032;8.310;2023-04-29T03:39:22;4.70;;;1.60;;
46084;SDS011;31823;47.032;8.310;2023-04-29T03:41:48;2.30;;;1.40;;
46084;SDS011;31823;47.032;8.310;2023-04-29T03:44:14;3.60;;;1.65;;
46084;SDS011;31823;47.032;8.310;2023-04-29T03:46:39;4.32;;;1.35;;
46084;SDS011;31823;47.032;8.310;2023-04-29T03:49:05;1.33;;;1.23;;
46084;SDS011;31823;47.032;8.310;2023-04-29T03:51:31;3.55;;;1.30;;
46084;SDS011;31823;47.032;8.310;2023-04-29T03:53:56;9.35;;;1.90;;
46084;SDS011;31823;47.032;8.310;2023-04-29T03:56:23;2.30;;;1.30;;
46084;SDS011;31823;47.032;8.310;2023-04-29T03:58:52;8.02;;;1.55;;
46084;SDS011;31823;47.032;8.310;2023-04-29T04:01:17;4.53;;;1.40;;
46084;SDS011;31823;47.032;8.310;2023-04-29T04:03:43;1.85;;;1.58;;
46084;SDS011;31823;47.032;8.310;2023-04-29T04:06:09;5.90;;;1.30;;
46084;SDS011;31823;47.032;8.310;2023-04-29T04:08:35;6.88;;;1.50;;
46084;SDS011;31823;47.032;8.310;2023-04-29T04:11:00;8.23;;;1.80;;
46084;SDS011;31823;47.032;8.310;2023-04-29T04:13:28;5.55;;;1.27;;
46084;SDS011;31823;47.032;8.310;2023-04-29T04:15:54;4.60;;;1.38;;
46084;SDS011;31823;47.032;8.310;2023-04-29T04:18:20;6.07;;;1.67;;
46084;SDS011;31823;47.032;8.310;2023-04-29T04:20:45;6.15;;;1.50;;
46084;SDS011;31823;47.032;8.310;2023-04-29T04:23:11;8.27;;;1.50;;
46084;SDS011;31823;47.032;8.310;2023-04-29T04:25:37;6.43;;;1.73;;
46084;SDS011;31823;47.032;8.310;2023-04-29T04:28:08;10.27;;;2.08;;
46084;SDS011;31823;47.032;8.310;2023-04-29T04:30:34;5.63;;;1.40;;
46084;SDS011;31823;47.032;8.310;2023-04-29T04:33:00;2.70;;;1.52;;
46084;SDS011;31823;47.032;8.310;2023-04-29T04:35:26;2.70;;;1.27;;
46084;SDS011;31823;47.032;8.310;2023-04-29T04:37:52;1.52;;;1.20;;
46084;SDS011;31823;47.032;8.310;2023-04-29T04:40:17;5.32;;;1.10;;
46084;SDS011;31823;47.032;8.310;2023-04-29T04:42:43;2.55;;;1.30;;
46084;SDS011;31823;47.032;8.310;2023-04-29T04:45:09;2.03;;;1.20;;
46084;SDS011;31823;47.032;8.310;2023-04-29T04:47:35;4.20;;;1.20;;
46084;SDS011;31823;47.032;8.310;2023-04-29T04:50:01;2.50;;;1.52;;
46084;SDS011;31823;47.032;8.310;2023-04-29T04:52:28;3.47;;;1.30;;
46084;SDS011;31823;47.032;8.310;2023-04-29T04:54:54;2.58;;;1.38;;
46084;SDS011;31823;47.032;8.310;2023-04-29T04:57:20;3.85;;;1.30;;
46084;SDS011;31823;47.032;8.310;2023-04-29T04:59:45;2.53;;;1.05;;
46084;SDS011;31823;47.032;8.310;2023-04-29T05:02:11;4.32;;;1.20;;
46084;SDS011;31823;47.032;8.310;2023-04-29T05:04:36;4.47;;;1.98;;
46084;SDS011;31823;47.032;8.310;2023-04-29T05:07:02;1.42;;;1.17;;
46084;SDS011;31823;47.032;8.310;2023-04-29T05:09:27;1.30;;;1.20;;
46084;SDS011;31823;47.032;8.310;2023-04-29T05:11:53;6.68;;;1.92;;
46084;SDS011;31823;47.032;8.310;2023-04-29T05:14:19;4.25;;;1.13;;
46084;SDS011;31823;47.032;8.310;2023-04-29T05:16:44;1.92;;;1.45;;
46084;SDS011;31823;47.032;8.310;2023-04-29T05:19:10;3.95;;;1.50;;
46084;SDS011;31823;47.032;8.310;2023-04-29T05:21:36;2.17;;;1.10;;
46084;SDS011;31823;47.032;8.310;2023-04-29T05:24:02;2.50;;;1.20;;
46084;SDS011;31823;47.032;8.310;2023-04-29T05:26:28;5.25;;;1.40;;
46084;SDS011;31823;47.032;8.310;2023-04-29T05:28:53;5.47;;;1.40;;
46084;SDS011;31823;47.032;8.310;2023-04-29T05:31:19;9.05;;;1.67;;
46084;SDS011;31823;47.032;8.310;2023-04-29T05:33:45;2.72;;;1.30;;
46084;SDS011;31823;47.032;8.310;2023-04-29T05:36:10;5.53;;;1.67;;
46084;SDS011;31823;47.032;8.310;2023-04-29T05:38:36;5.90;;;3.88;;
46084;SDS011;31823;47.032;8.310;2023-04-29T05:41:02;3.08;;;1.80;;
46084;SDS011;31823;47.032;8.310;2023-04-29T05:43:28;5.32;;;1.45;;
46084;SDS011;31823;47.032;8.310;2023-04-29T05:45:53;4.40;;;1.95;;
46084;SDS011;31823;47.032;8.310;2023-04-29T05:48:20;2.33;;;2.03;;
46084;SDS011;31823;47.032;8.310;2023-04-29T05:50:45;4.57;;;1.70;;
46084;SDS011;31823;47.032;8.310;2023-04-29T05:53:12;3.00;;;2.00;;
46084;SDS011;31823;47.032;8.310;2023-04-29T05:55:38;3.33;;;1.83;;
46084;SDS011;31823;47.032;8.310;2023-04-29T05:58:04;4.07;;;1.50;;
46084;SDS011;31823;47.032;8.310;2023-04-29T06:00:29;1.52;;;1.02;;
46084;SDS011;31823;47.032;8.310;2023-04-29T06:02:55;5.35;;;1.55;;
46084;SDS011;31823;47.032;8.310;2023-04-29T06:05:21;3.40;;;1.30;;
46084;SDS011;31823;47.032;8.310;2023-04-29T06:07:47;3.47;;;1.45;;
46084;SDS011;31823;47.032;8.310;2023-04-29T06:10:12;3.35;;;1.90;;
46084;SDS011;31823;47.032;8.310;2023-04-29T06:12:39;9.35;;;2.08;;
46084;SDS011;31823;47.032;8.310;2023-04-29T06:15:05;2.47;;;1.30;;
46084;SDS011;31823;47.032;8.310;2023-04-29T06:17:31;3.17;;;1.30;;
46084;SDS011;31823;47.032;8.310;2023-04-29T06:19:57;1.10;;;1.00;;
46084;SDS011;31823;47.032;8.310;2023-04-29T06:22:22;2.60;;;1.30;;
46084;SDS011;31823;47.032;8.310;2023-04-29T06:24:48;1.58;;;1.35;;
46084;SDS011;31823;47.032;8.310;2023-04-29T06:27:17;7.32;;;1.38;;
46084;SDS011;31823;47.032;8.310;2023-04-29T06:29:42;1.58;;;1.33;;
46084;SDS011;31823;47.032;8.310;2023-04-29T06:32:08;1.35;;;1.17;;
46084;SDS011;31823;47.032;8.310;2023-04-29T06:34:34;2.47;;;1.20;;
46084;SDS011;31823;47.032;8.310;2023-04-29T06:37:00;2.35;;;1.40;;
46084;SDS011;31823;47.032;8.310;2023-04-29T06:39:25;2.55;;;1.50;;
46084;SDS011;31823;47.032;8.310;2023-04-29T06:41:51;2.28;;;1.65;;
46084;SDS011;31823;47.032;8.310;2023-04-29T06:44:17;1.60;;;1.40;;
46084;SDS011;31823;47.032;8.310;2023-04-29T06:46:42;2.67;;;2.05;;
46084;SDS011;31823;47.032;8.310;2023-04-29T06:49:08;3.67;;;1.60;;
46084;SDS011;31823;47.032;8.310;2023-04-29T06:51:34;3.20;;;2.00;;
46084;SDS011;31823;47.032;8.310;2023-04-29T06:54:00;3.35;;;2.10;;
46084;SDS011;31823;47.032;8.310;2023-04-29T06:56:26;2.50;;;2.08;;
46084;SDS011;31823;47.032;8.310;2023-04-29T06:58:52;5.35;;;2.35;;
46084;SDS011;31823;47.032;8.310;2023-04-29T07:01:17;3.78;;;2.00;;
46084;SDS011;31823;47.032;8.310;2023-04-29T07:03:43;2.03;;;1.67;;
46084;SDS011;31823;47.032;8.310;2023-04-29T07:06:09;3.53;;;1.95;;
46084;SDS011;31823;47.032;8.310;2023-04-29T07:08:34;2.20;;;1.90;;
46084;SDS011;31823;47.032;8.310;2023-04-29T07:11:00;2.95;;;2.10;;
46084;SDS011;31823;47.032;8.310;2023-04-29T07:13:25;4.40;;;2.28;;
46084;SDS011;31823;47.032;8.310;2023-04-29T07:15:51;3.95;;;2.15;;
46084;SDS011;31823;47.032;8.310;2023-04-29T07:18:16;4.93;;;2.13;;
46084;SDS011;31823;47.032;8.310;2023-04-29T07:20:42;7.10;;;2.30;;
46084;SDS011;31823;47.032;8.310;2023-04-29T07:23:08;5.15;;;2.33;;
46084;SDS011;31823;47.032;8.310;2023-04-29T07:25:34;4.30;;;2.78;;
46084;SDS011;31823;47.032;8.310;2023-04-29T07:28:00;2.40;;;1.80;;
46084;SDS011;31823;47.032;8.310;2023-04-29T07:30:25;3.95;;;2.10;;
46084;SDS011;31823;47.032;8.310;2023-04-29T07:32:51;2.47;;;1.40;;
46084;SDS011;31823;47.032;8.310;2023-04-29T07:35:16;1.50;;;1.23;;
46084;SDS011;31823;47.032;8.310;2023-04-29T07:37:42;2.35;;;1.42;;
46084;SDS011;31823;47.032;8.310;2023-04-29T07:40:08;2.25;;;1.20;;
46084;SDS011;31823;47.032;8.310;2023-04-29T07:42:34;1.20;;;1.10;;
46084;SDS011;31823;47.032;8.310;2023-04-29T07:44:59;2.60;;;1.20;;
46084;SDS011;31823;47.032;8.310;2023-04-29T07:47:25;1.35;;;0.80;;
46084;SDS011;31823;47.032;8.310;2023-04-29T07:49:51;4.38;;;1.00;;
46084;SDS011;31823;47.032;8.310;2023-04-29T07:52:17;1.17;;;1.08;;
46084;SDS011;31823;47.032;8.310;2023-04-29T07:54:42;1.20;;;0.77;;
46084;SDS011;31823;47.032;8.310;2023-04-29T07:57:08;1.05;;;0.90;;
46084;SDS011;31823;47.032;8.310;2023-04-29T07:59:33;0.95;;;0.85;;
46084;SDS011;31823;47.032;8.310;2023-04-29T08:01:59;2.85;;;0.70;;
46084;SDS011;31823;47.032;8.310;2023-04-29T08:04:25;1.55;;;0.85;;
46084;SDS011;31823;47.032;8.310;2023-04-29T08:06:51;2.35;;;1.00;;
46084;SDS011;31823;47.032;8.310;2023-04-29T08:09:17;1.10;;;1.00;;
46084;SDS011;31823;47.032;8.310;2023-04-29T08:11:42;2.25;;;0.88;;
46084;SDS011;31823;47.032;8.310;2023-04-29T08:14:08;10.57;;;1.20;;
46084;SDS011;31823;47.032;8.310;2023-04-29T08:16:34;3.10;;;1.00;;
46084;SDS011;31823;47.032;8.310;2023-04-29T08:19:00;1.48;;;1.00;;
46084;SDS011;31823;47.032;8.310;2023-04-29T08:21:25;1.88;;;1.27;;
46084;SDS011;31823;47.032;8.310;2023-04-29T08:23:51;3.05;;;1.50;;
46084;SDS011;31823;47.032;8.310;2023-04-29T08:26:17;1.02;;;0.95;;
46084;SDS011;31823;47.032;8.310;2023-04-29T08:28:43;1.08;;;0.90;;
46084;SDS011;31823;47.032;8.310;2023-04-29T08:31:15;3.97;;;0.98;;
46084;SDS011;31823;47.032;8.310;2023-04-29T08:33:44;1.20;;;0.90;;
46084;SDS011;31823;47.032;8.310;2023-04-29T08:36:10;7.30;;;1.20;;
46084;SDS011;31823;47.032;8.310;2023-04-29T08:38:36;1.13;;;0.93;;
46084;SDS011;31823;47.032;8.310;2023-04-29T08:41:01;1.50;;;0.90;;
46084;SDS011;31823;47.032;8.310;2023-04-29T08:43:27;4.50;;;1.23;;
46084;SDS011;31823;47.032;8.310;2023-04-29T08:45:53;0.70;;;0.70;;
46084;SDS011;31823;47.032;8.310;2023-04-29T08:48:21;1.05;;;0.90;;
46084;SDS011;31823;47.032;8.310;2023-04-29T08:50:47;1.08;;;0.73;;
46084;SDS011;31823;47.032;8.310;2023-04-29T08:53:13;1.35;;;1.02;;
46084;SDS011;31823;47.032;8.310;2023-04-29T08:55:42;1.08;;;1.00;;
46084;SDS011;31823;47.032;8.310;2023-04-29T08:58:12;5.82;;;1.10;;
46084;SDS011;31823;47.032;8.310;2023-04-29T09:00:39;2.40;;;1.02;;
46084;SDS011;31823;47.032;8.310;2023-04-29T09:05:55;5.43;;;5.03;;
46084;SDS011;31823;47.032;8.310;2023-04-29T09:08:25;3.17;;;2.22;;
46084;SDS011;31823;47.032;8.310;2023-04-29T09:10:52;1.45;;;0.90;;
46084;SDS011;31823;47.032;8.310;2023-04-29T09:13:30;0.90;;;0.68;;
46084;SDS011;31823;47.032;8.310;2023-04-29T09:15:57;2.60;;;1.23;;
46084;SDS011;31823;47.032;8.310;2023-04-29T09:21:24;29.05;;;26.75;;
46084;SDS011;31823;47.032;8.310;2023-04-29T09:24:01;16.52;;;14.98;;
46084;SDS011;31823;47.032;8.310;2023-04-29T09:26:34;3.25;;;1.38;;
46084;SDS011;31823;47.032;8.310;2023-04-29T09:29:07;1.88;;;1.67;;
46084;SDS011;31823;47.032;8.310;2023-04-29T09:31:42;6.07;;;2.08;;
46084;SDS011;31823;47.032;8.310;2023-04-29T09:34:08;2.40;;;2.10;;
46084;SDS011;31823;47.032;8.310;2023-04-29T09:39:20;4.57;;;3.25;;
46084;SDS011;31823;47.032;8.310;2023-04-29T09:41:56;5.70;;;1.70;;
46084;SDS011;31823;47.032;8.310;2023-04-29T09:44:33;2.13;;;1.50;;
46084;SDS011;31823;47.032;8.310;2023-04-29T09:47:06;2.72;;;2.00;;
46084;SDS011;31823;47.032;8.310;2023-04-29T09:49:36;5.20;;;1.30;;
46084;SDS011;31823;47.032;8.310;2023-04-29T09:54:34;3.92;;;2.15;;
46084;SDS011;31823;47.032;8.310;2023-04-29T09:57:01;2.33;;;2.13;;
46084;SDS011;31823;47.032;8.310;2023-04-29T09:59:31;3.70;;;2.55;;
46084;SDS011;31823;47.032;8.310;2023-04-29T10:02:01;3.00;;;2.53;;
46084;SDS011;31823;47.032;8.310;2023-04-29T10:04:34;3.15;;;2.63;;
46084;SDS011;31823;47.032;8.310;2023-04-29T10:07:02;2.75;;;1.90;;
46084;SDS011;31823;47.032;8.310;2023-04-29T10:09:28;1.77;;;1.30;;
46084;SDS011;31823;47.032;8.310;2023-04-29T10:11:55;1.95;;;1.20;;
46084;SDS011;31823;47.032;8.310;2023-04-29T10:14:22;2.47;;;1.20;;
46084;SDS011;31823;47.032;8.310;2023-04-29T10:16:53;1.80;;;1.55;;
46084;SDS011;31823;47.032;8.310;2023-04-29T10:22:11;4.03;;;2.90;;
46084;SDS011;31823;47.032;8.310;2023-04-29T10:24:43;2.60;;;2.40;;
46084;SDS011;31823;47.032;8.310;2023-04-29T10:27:10;4.88;;;3.15;;
46084;SDS011;31823;47.032;8.310;2023-04-29T10:29:37;7.05;;;3.30;;
46084;SDS011;31823;47.032;8.310;2023-04-29T10:32:08;3.50;;;3.20;;
46084;SDS011;31823;47.032;8.310;2023-04-29T10:34:36;3.42;;;3.13;;
46084;SDS011;31823;47.032;8.310;2023-04-29T10:37:09;3.30;;;3.00;;
46084;SDS011;31823;47.032;8.310;2023-04-29T10:39:42;4.22;;;3.00;;
46084;SDS011;31823;47.032;8.310;2023-04-29T10:50:34;2.60;;;2.40;;
46084;SDS011;31823;47.032;8.310;2023-04-29T10:53:13;2.13;;;2.00;;
46084;SDS011;31823;47.032;8.310;2023-04-29T10:55:46;2.95;;;1.95;;
46084;SDS011;31823;47.032;8.310;2023-04-29T10:58:33;2.50;;;2.30;;
46084;SDS011;31823;47.032;8.310;2023-04-29T11:01:06;2.58;;;2.25;;
46084;SDS011;31823;47.032;8.310;2023-04-29T11:03:48;2.50;;;2.30;;
46084;SDS011;31823;47.032;8.310;2023-04-29T11:06:24;2.67;;;2.40;;
46084;SDS011;31823;47.032;8.310;2023-04-29T11:11:40;4.28;;;2.13;;
46084;SDS011;31823;47.032;8.310;2023-04-29T11:14:09;2.40;;;1.83;;
46084;SDS011;31823;47.032;8.310;2023-04-29T11:16:36;2.17;;;2.00;;
46084;SDS011;31823;47.032;8.310;2023-04-29T11:19:03;2.20;;;2.10;;
46084;SDS011;31823;47.032;8.310;2023-04-29T11:21:32;2.17;;;1.98;;
46084;SDS011;31823;47.032;8.310;2023-04-29T11:23:58;2.58;;;1.70;;
46084;SDS011;31823;47.032;8.310;2023-04-29T11:26:25;1.80;;;1.70;;
46084;SDS011;31823;47.032;8.310;2023-04-29T11:28:51;2.95;;;1.85;;
46084;SDS011;31823;47.032;8.310;2023-04-29T11:31:17;3.17;;;2.03;;
46084;SDS011;31823;47.032;8.310;2023-04-29T11:33:43;2.58;;;2.13;;
46084;SDS011;31823;47.032;8.310;2023-04-29T11:36:10;2.97;;;2.10;;
46084;SDS011;31823;47.032;8.310;2023-04-29T11:38:38;2.25;;;2.05;;
46084;SDS011;31823;47.032;8.310;2023-04-29T11:41:07;10.50;;;2.40;;
46084;SDS011;31823;47.032;8.310;2023-04-29T11:43:35;3.10;;;2.00;;
46084;SDS011;31823;47.032;8.310;2023-04-29T11:46:10;3.33;;;2.40;;
46084;SDS011;31823;47.032;8.310;2023-04-29T11:48:45;2.15;;;1.92;;
46084;SDS011;31823;47.032;8.310;2023-04-29T11:51:12;1.95;;;1.80;;
46084;SDS011;31823;47.032;8.310;2023-04-29T11:53:39;2.10;;;2.00;;
46084;SDS011;31823;47.032;8.310;2023-04-29T11:56:07;1.73;;;1.63;;
46084;SDS011;31823;47.032;8.310;2023-04-29T11:58:36;2.53;;;2.30;;
46084;SDS011;31823;47.032;8.310;2023-04-29T12:01:05;2.83;;;2.63;;
46084;SDS011;31823;47.032;8.310;2023-04-29T12:03:31;2.85;;;2.28;;
46084;SDS011;31823;47.032;8.310;2023-04-29T12:05:57;2.67;;;2.47;;
46084;SDS011;31823;47.032;8.310;2023-04-29T12:08:24;4.53;;;2.60;;
46084;SDS011;31823;47.032;8.310;2023-04-29T12:10:51;2.63;;;2.42;;
46084;SDS011;31823;47.032;8.310;2023-04-29T12:13:19;3.35;;;3.05;;
46084;SDS011;31823;47.032;8.310;2023-04-29T12:15:47;2.70;;;2.50;;
46084;SDS011;31823;47.032;8.310;2023-04-29T12:18:14;3.60;;;2.83;;
46084;SDS011;31823;47.032;8.310;2023-04-29T12:20:41;3.97;;;2.75;;
46084;SDS011;31823;47.032;8.310;2023-04-29T12:25:40;4.45;;;2.72;;
46084;SDS011;31823;47.032;8.310;2023-04-29T12:28:12;2.50;;;2.30;;
46084;SDS011;31823;47.032;8.310;2023-04-29T12:30:38;2.97;;;2.13;;
46084;SDS011;31823;47.032;8.310;2023-04-29T12:33:04;2.15;;;1.95;;
46084;SDS011;31823;47.032;8.310;2023-04-29T12:35:33;2.95;;;2.15;;
46084;SDS011;31823;47.032;8.310;2023-04-29T12:37:58;3.05;;;1.80;;
46084;SDS011;31823;47.032;8.310;2023-04-29T12:40:24;1.70;;;1.60;;
46084;SDS011;31823;47.032;8.310;2023-04-29T12:42:51;2.00;;;1.77;;
46084;SDS011;31823;47.032;8.310;2023-04-29T12:45:25;3.65;;;1.35;;
46084;SDS011;31823;47.032;8.310;2023-04-29T12:47:50;2.33;;;1.23;;
46084;SDS011;31823;47.032;8.310;2023-04-29T12:50:16;2.38;;;1.50;;
46084;SDS011;31823;47.032;8.310;2023-04-29T12:52:42;1.15;;;1.05;;
46084;SDS011;31823;47.032;8.310;2023-04-29T12:55:07;1.33;;;1.10;;
46084;SDS011;31823;47.032;8.310;2023-04-29T12:57:33;2.03;;;1.30;;
46084;SDS011;31823;47.032;8.310;2023-04-29T12:59:58;2.25;;;1.50;;
46084;SDS011;31823;47.032;8.310;2023-04-29T13:02:24;2.65;;;1.30;;
46084;SDS011;31823;47.032;8.310;2023-04-29T13:04:50;2.97;;;1.90;;
46084;SDS011;31823;47.032;8.310;2023-04-29T13:07:16;2.97;;;1.90;;
46084;SDS011;31823;47.032;8.310;2023-04-29T13:09:42;1.70;;;1.60;;
46084;SDS011;31823;47.032;8.310;2023-04-29T13:12:08;2.20;;;1.83;;
46084;SDS011;31823;47.032;8.310;2023-04-29T13:14:33;1.85;;;1.75;;
46084;SDS011;31823;47.032;8.310;2023-04-29T13:16:59;2.83;;;1.60;;
46084;SDS011;31823;47.032;8.310;2023-04-29T13:19:25;2.55;;;1.60;;
46084;SDS011;31823;47.032;8.310;2023-04-29T13:21:50;2.08;;;1.40;;
46084;SDS011;31823;47.032;8.310;2023-04-29T13:24:16;3.00;;;1.60;;
46084;SDS011;31823;47.032;8.310;2023-04-29T13:26:44;2.78;;;1.85;;
46084;SDS011;31823;47.032;8.310;2023-04-29T13:29:11;3.03;;;2.10;;
46084;SDS011;31823;47.032;8.310;2023-04-29T13:31:36;2.55;;;1.75;;
46084;SDS011;31823;47.032;8.310;2023-04-29T13:34:02;2.00;;;1.83;;
46084;SDS011;31823;47.032;8.310;2023-04-29T13:36:27;2.15;;;1.90;;
46084;SDS011;31823;47.032;8.310;2023-04-29T13:38:54;3.88;;;1.60;;
46084;SDS011;31823;47.032;8.310;2023-04-29T13:41:19;1.80;;;1.60;;
46084;SDS011;31823;47.032;8.310;2023-04-29T13:43:45;2.03;;;1.83;;
46084;SDS011;31823;47.032;8.310;2023-04-29T13:46:11;2.05;;;1.83;;
46084;SDS011;31823;47.032;8.310;2023-04-29T13:48:37;2.65;;;1.50;;
46084;SDS011;31823;47.032;8.310;2023-04-29T13:51:03;3.03;;;1.60;;
46084;SDS011;31823;47.032;8.310;2023-04-29T13:53:28;3.78;;;1.38;;
46084;SDS011;31823;47.032;8.310;2023-04-29T13:55:54;1.98;;;1.50;;
46084;SDS011;31823;47.032;8.310;2023-04-29T13:58:19;2.15;;;1.70;;
46084;SDS011;31823;47.032;8.310;2023-04-29T14:00:45;1.88;;;1.67;;
46084;SDS011;31823;47.032;8.310;2023-04-29T14:03:11;2.22;;;1.63;;
46084;SDS011;31823;47.032;8.310;2023-04-29T14:05:37;6.00;;;1.52;;
46084;SDS011;31823;47.032;8.310;2023-04-29T14:08:04;2.85;;;1.92;;
46084;SDS011;31823;47.032;8.310;2023-04-29T14:10:31;3.13;;;1.90;;
46084;SDS011;31823;47.032;8.310;2023-04-29T14:12:57;8.18;;;2.67;;
46084;SDS011;31823;47.032;8.310;2023-04-29T14:15:22;5.63;;;2.58;;
46084;SDS011;31823;47.032;8.310;2023-04-29T14:17:48;11.27;;;3.58;;
46084;SDS011;31823;47.032;8.310;2023-04-29T14:20:14;8.48;;;3.13;;
46084;SDS011;31823;47.032;8.310;2023-04-29T14:22:40;8.68;;;3.80;;
46084;SDS011;31823;47.032;8.310;2023-04-29T14:25:06;6.60;;;3.25;;
46084;SDS011;31823;47.032;8.310;2023-04-29T14:27:32;8.25;;;4.53;;
46084;SDS011;31823;47.032;8.310;2023-04-29T14:29:59;5.03;;;2.97;;
46084;SDS011;31823;47.032;8.310;2023-04-29T14:32:25;7.05;;;3.40;;
46084;SDS011;31823;47.032;8.310;2023-04-29T14:34:50;6.03;;;3.42;;
46084;SDS011;31823;47.032;8.310;2023-04-29T14:37:16;7.90;;;3.33;;
46084;SDS011;31823;47.032;8.310;2023-04-29T14:39:41;8.15;;;3.75;;
46084;SDS011;31823;47.032;8.310;2023-04-29T14:42:07;10.15;;;4.95;;
46084;SDS011;31823;47.032;8.310;2023-04-29T14:44:32;7.35;;;3.42;;
46084;SDS011;31823;47.032;8.310;2023-04-29T14:46:58;8.60;;;2.95;;
46084;SDS011;31823;47.032;8.310;2023-04-29T14:49:24;8.80;;;3.67;;
46084;SDS011;31823;47.032;8.310;2023-04-29T14:51:50;6.63;;;3.28;;
46084;SDS011;31823;47.032;8.310;2023-04-29T14:54:15;8.45;;;4.40;;
46084;SDS011;31823;47.032;8.310;2023-04-29T14:56:41;3.85;;;2.25;;
46084;SDS011;31823;47.032;8.310;2023-04-29T14:59:07;5.95;;;2.60;;
46084;SDS011;31823;47.032;8.310;2023-04-29T15:01:33;4.18;;;2.20;;
46084;SDS011;31823;47.032;8.310;2023-04-29T15:03:59;9.32;;;3.10;;
46084;SDS011;31823;47.032;8.310;2023-04-29T15:06:25;5.20;;;2.80;;
46084;SDS011;31823;47.032;8.310;2023-04-29T15:08:51;5.03;;;2.50;;
46084;SDS011;31823;47.032;8.310;2023-04-29T15:11:17;2.75;;;2.20;;
46084;SDS011;31823;47.032;8.310;2023-04-29T15:13:43;4.35;;;2.40;;
46084;SDS011;31823;47.032;8.310;2023-04-29T15:16:08;5.93;;;2.70;;
46084;SDS011;31823;47.032;8.310;2023-04-29T15:18:34;4.45;;;2.42;;
46084;SDS011;31823;47.032;8.310;2023-04-29T15:21:00;4.20;;;2.42;;
46084;SDS011;31823;47.032;8.310;2023-04-29T15:23:26;4.70;;;2.03;;
46084;SDS011;31823;47.032;8.310;2023-04-29T15:25:51;2.13;;;1.90;;
46084;SDS011;31823;47.032;8.310;2023-04-29T15:28:17;2.13;;;1.88;;